createdAt,value
2023-04-26T00:00:52.957Z,0
2023-04-26T00:02:26.000Z,0
2023-04-26T00:03:42.000Z,0
2023-04-26T00:04:40.553Z,0
2023-04-26T00:05:56.746Z,0
2023-04-26T00:07:30.000Z,0
2023-04-26T00:08:47.000Z,0
2023-04-26T00:10:03.000Z,0
2023-04-26T00:11:01.520Z,0
2023-04-26T00:13:02.000Z,0
2023-04-26T00:13:33.906Z,0
2023-04-26T00:15:08.000Z,0
2023-04-26T00:16:24.000Z,0
2023-04-26T00:17:40.000Z,0
2023-04-26T00:18:56.694Z,0
2023-04-26T00:20:12.876Z,0
2023-04-26T00:21:29.000Z,0
2023-04-26T00:23:11.000Z,0
2023-04-26T00:23:43.452Z,0
2023-04-26T00:25:17.645Z,0
2023-04-26T00:26:15.839Z,0
2023-04-26T00:27:49.070Z,0
2023-04-26T00:29:05.000Z,0
2023-04-26T00:30:21.434Z,0
2023-04-26T00:31:19.628Z,0
2023-04-26T00:32:53.000Z,0
2023-04-26T00:34:10.014Z,0
2023-04-26T00:35:26.210Z,0
2023-04-26T00:36:42.000Z,0
2023-04-26T00:37:58.000Z,0
2023-04-26T00:38:56.787Z,0
2023-04-26T00:40:30.000Z,0
2023-04-26T00:41:47.194Z,0
2023-04-26T00:43:03.392Z,0
2023-04-26T00:44:19.561Z,0
2023-04-26T00:45:35.767Z,0
2023-04-26T00:46:50.000Z,0
2023-04-26T00:48:07.000Z,0
2023-04-26T00:49:05.350Z,0
2023-04-26T00:50:39.558Z,0
2023-04-26T00:51:55.740Z,0
2023-04-26T00:53:38.000Z,0
2023-04-26T00:54:10.124Z,0
2023-04-26T00:55:44.317Z,0
2023-04-26T00:56:42.510Z,0
2023-04-26T00:58:16.723Z,0
2023-04-26T00:59:32.000Z,0
2023-04-26T01:00:49.102Z,0
2023-04-26T01:01:47.283Z,0
2023-04-26T01:03:20.000Z,0
2023-04-26T01:04:18.687Z,0
2023-04-26T01:05:52.000Z,0
2023-04-26T01:07:09.000Z,0
2023-04-26T01:08:51.000Z,0
2023-04-26T01:09:23.460Z,0
2023-04-26T01:10:57.000Z,0
2023-04-26T01:12:13.000Z,0
2023-04-26T01:13:30.048Z,0
2023-04-26T01:14:28.234Z,0
2023-04-26T01:16:02.449Z,0
2023-04-26T01:17:18.000Z,0
2023-04-26T01:18:34.820Z,0
2023-04-26T01:19:32.028Z,0
2023-04-26T01:21:06.000Z,0
2023-04-26T01:22:04.416Z,0
2023-04-26T01:23:38.627Z,0
2023-04-26T01:24:54.000Z,0
2023-04-26T01:26:11.001Z,0
2023-04-26T01:27:27.194Z,0
2023-04-26T01:28:43.393Z,0
2023-04-26T01:29:41.578Z,0
2023-04-26T01:30:57.771Z,0
2023-04-26T01:32:31.979Z,0
2023-04-26T01:33:48.000Z,0
2023-04-26T01:34:46.352Z,0
2023-04-26T01:36:19.577Z,0
2023-04-26T01:37:35.756Z,0
2023-04-26T01:38:51.953Z,0
2023-04-26T01:40:08.000Z,0
2023-04-26T01:41:24.000Z,0
2023-04-26T01:42:40.534Z,0
2023-04-26T01:43:38.724Z,0
2023-04-26T01:45:39.000Z,0
2023-04-26T01:46:29.114Z,0
2023-04-26T01:47:27.305Z,0
2023-04-26T01:49:01.499Z,0
2023-04-26T01:50:17.000Z,0
2023-04-26T01:51:33.901Z,0
2023-04-26T01:52:49.104Z,0
2023-04-26T01:54:05.289Z,0
2023-04-26T01:55:03.483Z,0
2023-04-26T01:56:37.677Z,0
2023-04-26T01:57:35.870Z,0
2023-04-26T01:59:10.000Z,0
2023-04-26T02:00:08.259Z,0
2023-04-26T02:01:42.459Z,0
2023-04-26T02:02:58.000Z,0
2023-04-26T02:04:14.000Z,0
2023-04-26T02:05:13.033Z,0
2023-04-26T02:06:47.236Z,0
2023-04-26T02:08:03.442Z,0
2023-04-26T02:09:18.640Z,0
2023-04-26T02:10:34.837Z,0
2023-04-26T02:11:51.000Z,0
2023-04-26T02:13:07.214Z,0
2023-04-26T02:14:23.413Z,0
2023-04-26T02:15:39.000Z,0
2023-04-26T02:16:55.000Z,0
2023-04-26T02:17:53.985Z,0
2023-04-26T02:19:28.000Z,0
2023-04-26T02:20:44.375Z,0
2023-04-26T02:22:00.574Z,0
2023-04-26T02:22:58.759Z,0
2023-04-26T02:24:32.000Z,0
2023-04-26T02:25:31.146Z,0
2023-04-26T02:27:04.000Z,0
2023-04-26T02:28:20.000Z,0
2023-04-26T02:29:36.754Z,0
2023-04-26T02:30:52.945Z,0
2023-04-26T02:32:09.131Z,0
2023-04-26T02:33:07.325Z,0
2023-04-26T02:34:41.000Z,0
2023-04-26T02:35:57.721Z,0
2023-04-26T02:37:13.906Z,0
2023-04-26T02:38:56.000Z,0
2023-04-26T02:39:46.301Z,0
2023-04-26T02:41:02.000Z,0
2023-04-26T02:42:18.000Z,0
2023-04-26T02:43:16.876Z,0
2023-04-26T02:44:50.095Z,0
2023-04-26T02:46:06.282Z,0
2023-04-26T02:47:22.494Z,0
2023-04-26T02:48:20.666Z,0
2023-04-26T02:49:54.000Z,0
2023-04-26T02:50:53.054Z,0
2023-04-26T02:52:27.257Z,0
2023-04-26T02:53:43.000Z,0
2023-04-26T02:54:59.000Z,0
2023-04-26T02:55:57.828Z,0
2023-04-26T02:57:32.000Z,0
2023-04-26T02:58:48.000Z,0
2023-04-26T03:00:04.416Z,0
2023-04-26T03:01:20.617Z,0
2023-04-26T03:02:35.000Z,0
2023-04-26T03:03:34.007Z,0
2023-04-26T03:05:08.000Z,0
2023-04-26T03:06:24.000Z,0
2023-04-26T03:07:40.000Z,0
2023-04-26T03:08:38.783Z,0
2023-04-26T03:10:12.000Z,0
2023-04-26T03:11:29.180Z,4
2023-04-26T03:12:45.369Z,4
2023-04-26T03:13:43.557Z,4
2023-04-26T03:14:59.752Z,0
2023-04-26T03:16:33.962Z,4
2023-04-26T03:17:50.149Z,4
2023-04-26T03:19:06.000Z,4
2023-04-26T03:20:22.000Z,4
2023-04-26T03:21:20.720Z,4
2023-04-26T03:23:20.000Z,8
2023-04-26T03:24:10.000Z,8
2023-04-26T03:25:08.317Z,12
2023-04-26T03:26:42.516Z,12
2023-04-26T03:27:58.000Z,16
2023-04-26T03:28:56.899Z,20
2023-04-26T03:30:31.092Z,20
2023-04-26T03:31:47.286Z,24
2023-04-26T03:33:03.493Z,32
2023-04-26T03:34:19.000Z,36
2023-04-26T03:35:35.000Z,40
2023-04-26T03:36:34.061Z,44
2023-04-26T03:38:08.276Z,56
2023-04-26T03:39:05.464Z,60
2023-04-26T03:40:39.672Z,72
2023-04-26T03:41:55.857Z,84
2023-04-26T03:43:12.000Z,96
2023-04-26T03:44:28.000Z,108
2023-04-26T03:46:10.000Z,124
2023-04-26T03:47:00.650Z,140
2023-04-26T03:47:58.822Z,160
2023-04-26T03:49:15.016Z,180
2023-04-26T03:50:49.209Z,200
2023-04-26T03:52:05.413Z,224
2023-04-26T03:53:21.000Z,248
2023-04-26T03:55:04.000Z,272
2023-04-26T03:55:53.020Z,300
2023-04-26T03:57:09.194Z,332
2023-04-26T03:58:25.000Z,360
2023-04-26T03:59:41.000Z,400
2023-04-26T04:00:57.000Z,432
2023-04-26T04:01:55.969Z,468
2023-04-26T04:03:30.174Z,504
2023-04-26T04:04:28.356Z,544
2023-04-26T04:06:02.550Z,584
2023-04-26T04:07:00.744Z,632
2023-04-26T04:08:34.937Z,672
2023-04-26T04:09:51.000Z,720
2023-04-26T04:11:07.332Z,768
2023-04-26T04:12:05.519Z,816
2023-04-26T04:13:38.729Z,868
2023-04-26T04:14:54.928Z,920
2023-04-26T04:16:11.000Z,972
2023-04-26T04:17:09.310Z,1032
2023-04-26T04:18:43.508Z,1084
2023-04-26T04:19:41.697Z,1136
2023-04-26T04:21:15.000Z,1188
2023-04-26T04:22:32.085Z,1244
2023-04-26T04:23:48.000Z,1300
2023-04-26T04:25:04.493Z,1360
2023-04-26T04:26:20.680Z,1412
2023-04-26T04:27:36.869Z,1468
2023-04-26T04:28:53.053Z,1520
2023-04-26T04:30:09.247Z,1580
2023-04-26T04:31:25.451Z,1636
2023-04-26T04:32:23.636Z,1692
2023-04-26T04:33:56.858Z,1752
2023-04-26T04:35:13.000Z,1804
2023-04-26T04:36:29.238Z,1860
2023-04-26T04:37:27.427Z,1920
2023-04-26T04:39:01.626Z,1972
2023-04-26T04:39:59.814Z,2016
2023-04-26T04:41:34.021Z,2068
2023-04-26T04:42:32.201Z,2112
2023-04-26T04:44:06.000Z,2160
2023-04-26T04:45:04.589Z,2212
2023-04-26T04:46:38.790Z,2260
2023-04-26T04:47:54.000Z,2316
2023-04-26T04:49:11.000Z,2356
2023-04-26T04:50:09.363Z,2408
2023-04-26T04:51:42.000Z,2444
2023-04-26T04:52:40.767Z,2496
2023-04-26T04:54:14.000Z,2536
2023-04-26T04:55:31.000Z,2576
2023-04-26T04:57:13.000Z,2628
2023-04-26T04:57:45.541Z,2664
2023-04-26T04:59:19.000Z,2688
2023-04-26T05:00:35.928Z,2736
2023-04-26T05:01:52.142Z,2776
2023-04-26T05:03:08.315Z,2824
2023-04-26T05:04:24.517Z,2856
2023-04-26T05:05:22.703Z,2896
2023-04-26T05:06:56.000Z,2920
2023-04-26T05:08:13.000Z,2968
2023-04-26T05:09:55.000Z,2996
2023-04-26T05:10:26.492Z,3032
2023-04-26T05:12:00.695Z,3064
2023-04-26T05:13:16.880Z,3092
2023-04-26T05:14:33.000Z,3104
2023-04-26T05:15:49.277Z,3136
2023-04-26T05:17:05.481Z,3180
2023-04-26T05:18:03.653Z,3192
2023-04-26T05:19:37.865Z,3236
2023-04-26T05:21:20.000Z,3260
2023-04-26T05:22:10.000Z,3280
2023-04-26T05:23:08.425Z,3296
2023-04-26T05:24:42.628Z,3292
2023-04-26T05:25:58.000Z,3316
2023-04-26T05:26:57.004Z,3324
2023-04-26T05:28:13.198Z,3348
2023-04-26T05:29:46.000Z,3372
2023-04-26T05:30:44.600Z,3396
2023-04-26T05:32:18.000Z,3408
2023-04-26T05:33:16.986Z,3448
2023-04-26T05:34:50.215Z,3460
2023-04-26T05:36:06.400Z,3468
2023-04-26T05:37:22.000Z,3512
2023-04-26T05:38:38.000Z,3544
2023-04-26T05:39:54.973Z,3556
2023-04-26T05:40:53.166Z,3508
2023-04-26T05:42:09.359Z,3604
2023-04-26T05:43:25.553Z,3628
2023-04-26T05:44:59.000Z,3632
2023-04-26T05:45:57.939Z,3672
2023-04-26T05:47:32.000Z,3716
2023-04-26T05:48:30.325Z,3732
2023-04-26T05:50:04.541Z,3764
2023-04-26T05:51:19.000Z,3796
2023-04-26T05:52:35.000Z,3808
2023-04-26T05:53:34.113Z,3832
2023-04-26T05:55:08.000Z,3868
2023-04-26T05:56:24.000Z,3896
2023-04-26T05:57:40.000Z,3912
2023-04-26T05:58:38.885Z,3956
2023-04-26T06:00:13.079Z,3976
2023-04-26T06:01:11.272Z,4012
2023-04-26T06:02:45.465Z,4036
2023-04-26T06:04:01.000Z,4068
2023-04-26T06:05:44.000Z,4092
2023-04-26T06:06:16.045Z,4124
2023-04-26T06:07:49.254Z,4156
2023-04-26T06:08:47.447Z,4164
2023-04-26T06:10:48.000Z,4204
2023-04-26T06:11:19.833Z,3716
2023-04-26T06:12:54.040Z,4228
2023-04-26T06:13:52.219Z,4240
2023-04-26T06:15:26.000Z,4276
2023-04-26T06:16:42.000Z,4300
2023-04-26T06:18:25.000Z,4140
2023-04-26T06:19:15.000Z,4336
2023-04-26T06:20:31.193Z,4376
2023-04-26T06:21:29.377Z,4264
2023-04-26T06:23:03.569Z,4476
2023-04-26T06:24:01.763Z,4472
2023-04-26T06:25:34.000Z,4520
2023-04-26T06:26:33.165Z,4532
2023-04-26T06:28:07.380Z,4572
2023-04-26T06:29:23.000Z,4584
2023-04-26T06:30:39.000Z,4612
2023-04-26T06:31:37.936Z,4664
2023-04-26T06:33:12.000Z,4704
2023-04-26T06:34:28.000Z,4144
2023-04-26T06:35:44.000Z,4720
2023-04-26T06:37:00.000Z,4792
2023-04-26T06:38:16.000Z,4896
2023-04-26T06:39:33.000Z,4932
2023-04-26T06:40:49.000Z,4944
2023-04-26T06:42:05.000Z,5060
2023-04-26T06:43:21.692Z,5124
2023-04-26T06:44:37.000Z,5136
2023-04-26T06:45:54.000Z,5172
2023-04-26T06:47:10.278Z,5232
2023-04-26T06:48:25.480Z,5164
2023-04-26T06:49:41.000Z,5200
2023-04-26T06:50:57.850Z,5264
2023-04-26T06:51:56.043Z,5488
2023-04-26T06:53:30.000Z,5240
2023-04-26T06:54:46.429Z,4396
2023-04-26T06:56:02.000Z,4788
2023-04-26T06:57:00.815Z,5388
2023-04-26T06:58:35.000Z,5404
2023-04-26T06:59:51.209Z,4636
2023-04-26T07:01:07.000Z,5312
2023-04-26T07:02:05.588Z,5064
2023-04-26T07:03:39.794Z,4092
2023-04-26T07:04:55.000Z,5284
2023-04-26T07:06:11.205Z,5304
2023-04-26T07:07:27.000Z,5296
2023-04-26T07:08:43.584Z,5300
2023-04-26T07:09:41.764Z,5412
2023-04-26T07:11:15.971Z,5440
2023-04-26T07:12:32.158Z,5524
2023-04-26T07:13:48.000Z,5456
2023-04-26T07:14:46.537Z,5384
2023-04-26T07:16:20.000Z,5800
2023-04-26T07:17:18.924Z,5576
2023-04-26T07:18:53.000Z,5644
2023-04-26T07:20:09.000Z,5620
2023-04-26T07:21:25.522Z,5784
2023-04-26T07:22:40.725Z,5892
2023-04-26T07:23:56.000Z,5828
2023-04-26T07:24:55.099Z,4316
2023-04-26T07:26:29.292Z,5904
2023-04-26T07:28:11.000Z,6040
2023-04-26T07:29:01.000Z,6204
2023-04-26T07:29:59.871Z,5508
2023-04-26T07:31:34.000Z,5648
2023-04-26T07:32:50.000Z,5952
2023-04-26T07:33:48.451Z,5540
2023-04-26T07:35:04.644Z,6312
2023-04-26T07:36:20.837Z,6176
2023-04-26T07:37:37.030Z,5804
2023-04-26T07:39:11.223Z,6148
2023-04-26T07:40:09.416Z,4468
2023-04-26T07:41:42.000Z,6128
2023-04-26T07:42:58.843Z,4732
2023-04-26T07:44:15.031Z,6600
2023-04-26T07:45:31.205Z,6740
2023-04-26T07:46:47.000Z,5544
2023-04-26T07:48:03.000Z,6580
2023-04-26T07:49:19.000Z,5108
2023-04-26T07:50:17.979Z,6656
2023-04-26T07:51:34.172Z,6600
2023-04-26T07:53:08.000Z,5284
2023-04-26T07:54:24.000Z,5888
2023-04-26T07:55:40.758Z,5112
2023-04-26T07:56:56.954Z,4536
2023-04-26T07:58:12.000Z,4384
2023-04-26T07:59:28.357Z,4332
2023-04-26T08:00:26.541Z,4340
2023-04-26T08:02:00.000Z,4212
2023-04-26T08:02:58.927Z,3740
2023-04-26T08:04:15.120Z,3496
2023-04-26T08:05:31.314Z,3340
2023-04-26T08:07:05.000Z,3408
2023-04-26T08:08:03.700Z,4100
2023-04-26T08:09:37.000Z,3672
2023-04-26T08:10:54.000Z,3860
2023-04-26T08:12:10.288Z,4096
2023-04-26T08:13:26.472Z,4328
2023-04-26T08:15:09.000Z,4680
2023-04-26T08:15:58.875Z,4960
2023-04-26T08:17:14.069Z,5724
2023-04-26T08:18:12.262Z,5540
2023-04-26T08:19:46.000Z,5008
2023-04-26T08:20:44.649Z,4924
2023-04-26T08:22:00.844Z,5696
2023-04-26T08:23:35.000Z,6732
2023-04-26T08:24:51.232Z,6576
2023-04-26T08:25:49.426Z,5184
2023-04-26T08:27:05.622Z,6200
2023-04-26T08:28:39.825Z,5568
2023-04-26T08:29:38.011Z,4920
2023-04-26T08:30:54.205Z,4160
2023-04-26T08:32:28.401Z,3716
2023-04-26T08:33:44.604Z,3664
2023-04-26T08:35:00.000Z,3848
2023-04-26T08:36:16.984Z,4300
2023-04-26T08:37:15.180Z,4724
2023-04-26T08:38:31.374Z,4976
2023-04-26T08:40:04.000Z,5036
2023-04-26T08:41:02.779Z,5084
2023-04-26T08:42:36.981Z,5136
2023-04-26T08:43:53.190Z,5276
2023-04-26T08:45:09.375Z,5656
2023-04-26T08:46:07.560Z,6796
2023-04-26T08:47:41.755Z,6888
2023-04-26T08:48:57.000Z,7092
2023-04-26T08:50:14.159Z,7396
2023-04-26T08:51:30.000Z,7040
2023-04-26T08:52:28.536Z,6496
2023-04-26T08:53:44.731Z,7328
2023-04-26T08:55:18.000Z,5904
2023-04-26T08:56:17.121Z,6260
2023-04-26T08:57:50.000Z,7040
2023-04-26T08:58:48.527Z,5484
2023-04-26T09:00:22.730Z,4964
2023-04-26T09:01:38.000Z,4544
2023-04-26T09:02:55.000Z,4280
2023-04-26T09:04:11.000Z,4400
2023-04-26T09:05:27.510Z,4560
2023-04-26T09:06:25.698Z,4860
2023-04-26T09:07:41.894Z,5120
2023-04-26T09:08:58.088Z,5044
2023-04-26T09:10:32.000Z,4712
2023-04-26T09:11:30.479Z,4808
2023-04-26T09:13:04.694Z,5072
2023-04-26T09:14:20.870Z,5360
2023-04-26T09:15:37.000Z,5652
2023-04-26T09:16:53.272Z,5752
2023-04-26T09:18:08.472Z,6020
2023-04-26T09:19:06.666Z,6196
2023-04-26T09:20:40.872Z,6224
2023-04-26T09:21:39.056Z,7132
2023-04-26T09:23:13.271Z,5060
2023-04-26T09:24:29.000Z,5052
2023-04-26T09:25:45.000Z,5012
2023-04-26T09:27:01.000Z,5092
2023-04-26T09:28:18.033Z,5840
2023-04-26T09:29:34.235Z,5260
2023-04-26T09:30:32.424Z,5484
2023-04-26T09:32:33.000Z,5964
2023-04-26T09:33:22.000Z,7672
2023-04-26T09:34:21.009Z,7836
2023-04-26T09:35:55.212Z,7268
2023-04-26T09:37:11.000Z,7772
2023-04-26T09:38:09.596Z,7840
2023-04-26T09:39:43.790Z,7872
2023-04-26T09:40:59.000Z,6884
2023-04-26T09:42:16.181Z,6476
2023-04-26T09:43:32.000Z,6104
2023-04-26T09:44:30.572Z,5688
2023-04-26T09:46:04.767Z,5804
2023-04-26T09:47:02.962Z,5748
2023-04-26T09:48:36.173Z,5936
2023-04-26T09:49:52.000Z,7964
2023-04-26T09:51:08.574Z,7888
2023-04-26T09:52:24.000Z,7100
2023-04-26T09:53:40.000Z,6544
2023-04-26T09:54:57.000Z,5768
2023-04-26T09:56:13.000Z,4552
2023-04-26T09:57:11.537Z,4440
2023-04-26T09:58:45.869Z,4600
2023-04-26T09:59:44.053Z,4828
2023-04-26T10:01:18.264Z,5192
2023-04-26T10:02:16.443Z,5048
2023-04-26T10:03:50.000Z,5104
2023-04-26T10:05:06.000Z,5176
2023-04-26T10:06:23.041Z,5120
2023-04-26T10:07:39.231Z,4976
2023-04-26T10:08:55.000Z,4824
2023-04-26T10:09:53.613Z,4708
2023-04-26T10:11:27.831Z,4580
2023-04-26T10:12:26.003Z,4412
2023-04-26T10:14:00.215Z,4292
2023-04-26T10:15:16.409Z,4036
2023-04-26T10:16:31.000Z,3780
2023-04-26T10:17:47.000Z,3524
2023-04-26T10:19:04.000Z,3232
2023-04-26T10:20:20.195Z,2948
2023-04-26T10:21:36.398Z,2708
2023-04-26T10:22:34.577Z,2544
2023-04-26T10:24:08.000Z,2452
2023-04-26T10:25:24.975Z,2404
2023-04-26T10:26:41.000Z,2408
2023-04-26T10:27:57.000Z,2504
2023-04-26T10:29:13.567Z,2628
2023-04-26T10:30:29.000Z,2848
2023-04-26T10:32:12.000Z,3080
2023-04-26T10:32:44.138Z,3304
2023-04-26T10:34:17.000Z,3564
2023-04-26T10:35:33.551Z,3816
2023-04-26T10:36:49.759Z,4100
2023-04-26T10:38:05.000Z,4432
2023-04-26T10:39:22.141Z,4752
2023-04-26T10:40:20.325Z,5092
2023-04-26T10:41:54.000Z,5396
2023-04-26T10:43:10.716Z,5652
2023-04-26T10:44:26.924Z,5760
2023-04-26T10:45:25.106Z,5852
2023-04-26T10:46:59.318Z,5968
2023-04-26T10:48:15.517Z,6120
2023-04-26T10:49:31.000Z,6384
2023-04-26T10:50:47.894Z,8036
2023-04-26T10:52:04.214Z,6700
2023-04-26T10:53:02.399Z,5820
2023-04-26T10:54:18.594Z,5496
2023-04-26T10:55:52.000Z,5384
2023-04-26T10:57:08.000Z,5412
2023-04-26T10:58:07.179Z,5444
2023-04-26T10:59:23.374Z,5480
2023-04-26T11:00:39.569Z,5524
2023-04-26T11:01:55.764Z,5580
2023-04-26T11:03:11.959Z,5676
2023-04-26T11:04:46.000Z,5752
2023-04-26T11:05:44.348Z,5832
2023-04-26T11:07:18.552Z,5932
2023-04-26T11:08:33.754Z,5996
2023-04-26T11:09:31.950Z,6104
2023-04-26T11:11:06.000Z,6100
2023-04-26T11:12:22.340Z,6152
2023-04-26T11:13:20.535Z,6200
2023-04-26T11:14:54.755Z,6292
2023-04-26T11:15:52.924Z,6356
2023-04-26T11:17:09.120Z,6408
2023-04-26T11:18:25.314Z,6436
2023-04-26T11:19:59.000Z,6544
2023-04-26T11:21:15.704Z,6708
2023-04-26T11:22:31.923Z,6956
2023-04-26T11:23:30.094Z,7100
2023-04-26T11:25:30.000Z,7644
2023-04-26T11:26:20.497Z,7120
2023-04-26T11:27:36.000Z,7204
2023-04-26T11:28:34.874Z,6828
2023-04-26T11:30:09.203Z,6832
2023-04-26T11:31:07.385Z,6684
2023-04-26T11:32:41.596Z,6852
2023-04-26T11:33:57.000Z,6676
2023-04-26T11:35:13.000Z,6464
2023-04-26T11:36:12.165Z,6440
2023-04-26T11:37:46.000Z,6320
2023-04-26T11:39:02.565Z,6268
2023-04-26T11:40:18.750Z,6092
2023-04-26T11:41:16.944Z,6060
2023-04-26T11:42:51.140Z,5992
2023-04-26T11:44:07.357Z,6012
2023-04-26T11:45:05.529Z,5876
2023-04-26T11:46:39.724Z,5720
2023-04-26T11:47:55.000Z,5672
2023-04-26T11:48:54.114Z,5684
2023-04-26T11:50:27.000Z,5788
2023-04-26T11:51:25.519Z,5828
2023-04-26T11:52:59.000Z,5936
2023-04-26T11:54:15.934Z,5972
2023-04-26T11:55:32.000Z,5988
2023-04-26T11:56:30.299Z,6048
2023-04-26T11:58:04.503Z,6084
2023-04-26T11:59:20.000Z,6456
2023-04-26T12:00:36.899Z,7980
2023-04-26T12:01:35.079Z,8008
2023-04-26T12:03:09.286Z,7276
2023-04-26T12:04:07.469Z,7748
2023-04-26T12:05:41.000Z,7920
2023-04-26T12:06:39.858Z,7732
2023-04-26T12:08:14.054Z,7780
2023-04-26T12:09:12.248Z,7608
2023-04-26T12:10:45.000Z,7680
2023-04-26T12:12:01.000Z,7904
2023-04-26T12:13:17.849Z,8108
2023-04-26T12:14:16.043Z,6320
2023-04-26T12:15:50.238Z,6160
2023-04-26T12:17:06.447Z,6300
2023-04-26T12:18:22.653Z,5804
2023-04-26T12:19:20.823Z,5644
2023-04-26T12:20:55.018Z,5504
2023-04-26T12:22:11.237Z,5520
2023-04-26T12:23:53.000Z,5500
2023-04-26T12:24:43.000Z,5440
2023-04-26T12:25:59.000Z,5340
2023-04-26T12:27:16.000Z,5284
2023-04-26T12:28:31.000Z,5328
2023-04-26T12:29:29.397Z,5544
2023-04-26T12:30:45.592Z,5504
2023-04-26T12:32:19.000Z,5632
2023-04-26T12:33:35.000Z,5708
2023-04-26T12:34:52.000Z,5784
2023-04-26T12:36:08.372Z,5860
2023-04-26T12:37:24.566Z,5892
2023-04-26T12:38:40.772Z,6052
2023-04-26T12:39:38.956Z,6136
2023-04-26T12:41:13.000Z,6324
2023-04-26T12:42:11.346Z,6544
2023-04-26T12:43:45.000Z,6692
2023-04-26T12:45:01.747Z,7444
2023-04-26T12:46:17.951Z,7544
2023-04-26T12:47:15.139Z,6740
2023-04-26T12:48:49.000Z,7088
2023-04-26T12:50:05.000Z,7036
2023-04-26T12:51:21.725Z,7036
2023-04-26T12:52:37.000Z,7888
2023-04-26T12:53:54.124Z,7920
2023-04-26T12:54:52.309Z,7728
2023-04-26T12:56:52.000Z,7968
2023-04-26T12:57:24.699Z,7932
2023-04-26T12:58:58.000Z,7832
2023-04-26T12:59:57.089Z,8124
2023-04-26T13:01:31.304Z,8284
2023-04-26T13:02:47.000Z,8352
2023-04-26T13:04:03.000Z,8392
2023-04-26T13:05:01.869Z,8600
2023-04-26T13:06:36.000Z,7672
2023-04-26T13:07:52.401Z,8260
2023-04-26T13:09:08.590Z,7756
2023-04-26T13:10:06.771Z,6568
2023-04-26T13:11:40.000Z,6240
2023-04-26T13:12:39.162Z,6012
2023-04-26T13:14:13.000Z,5728
2023-04-26T13:15:29.000Z,5724
2023-04-26T13:16:27.747Z,5628
2023-04-26T13:18:01.000Z,5248
2023-04-26T13:19:18.000Z,4976
2023-04-26T13:20:16.332Z,5520
2023-04-26T13:21:50.000Z,5900
2023-04-26T13:23:06.723Z,3616
2023-04-26T13:24:22.936Z,3224
2023-04-26T13:25:39.000Z,2964
2023-04-26T13:26:55.000Z,2800
2023-04-26T13:28:11.000Z,2728
2023-04-26T13:29:27.700Z,2748
2023-04-26T13:30:43.902Z,2748
2023-04-26T13:32:00.000Z,2728
2023-04-26T13:32:58.286Z,2740
2023-04-26T13:34:31.510Z,2792
2023-04-26T13:35:29.693Z,2912
2023-04-26T13:37:03.000Z,3004
2023-04-26T13:38:20.100Z,3040
2023-04-26T13:40:02.000Z,3048
2023-04-26T13:40:52.473Z,3100
2023-04-26T13:42:08.670Z,3168
2023-04-26T13:43:06.864Z,3292
2023-04-26T13:44:41.000Z,3472
2023-04-26T13:45:39.254Z,3712
2023-04-26T13:47:13.487Z,4024
2023-04-26T13:48:11.645Z,4352
2023-04-26T13:49:27.842Z,4712
2023-04-26T13:51:02.047Z,5020
2023-04-26T13:52:18.000Z,5216
2023-04-26T13:53:34.000Z,5420
2023-04-26T13:54:50.622Z,5744
2023-04-26T13:56:06.000Z,6564
2023-04-26T13:57:23.012Z,10540
2023-04-26T13:58:21.206Z,5312
2023-04-26T13:59:55.000Z,4956
2023-04-26T14:01:11.000Z,4784
2023-04-26T14:02:27.931Z,4736
2023-04-26T14:03:44.000Z,4748
2023-04-26T14:05:00.000Z,4832
2023-04-26T14:06:16.000Z,4868
2023-04-26T14:07:32.000Z,4920
2023-04-26T14:08:48.901Z,5064
2023-04-26T14:10:05.084Z,5328
2023-04-26T14:11:03.278Z,5684
2023-04-26T14:12:19.474Z,6052
2023-04-26T14:13:35.669Z,6460
2023-04-26T14:15:08.886Z,6940
2023-04-26T14:16:07.081Z,7640
2023-04-26T14:17:23.277Z,9084
2023-04-26T14:18:57.000Z,8928
2023-04-26T14:20:13.686Z,8796
2023-04-26T14:21:29.875Z,8224
2023-04-26T14:22:46.000Z,8228
2023-04-26T14:23:44.253Z,8360
2023-04-26T14:25:18.463Z,8108
2023-04-26T14:26:34.000Z,6768
2023-04-26T14:27:50.852Z,5864
2023-04-26T14:28:49.034Z,5064
2023-04-26T14:30:23.000Z,4948
2023-04-26T14:31:39.000Z,4972
2023-04-26T14:32:55.642Z,4924
2023-04-26T14:33:52.833Z,4704
2023-04-26T14:35:53.000Z,4704
2023-04-26T14:36:43.243Z,4560
2023-04-26T14:37:59.000Z,4636
2023-04-26T14:39:15.630Z,4672
2023-04-26T14:40:13.810Z,4112
2023-04-26T14:41:48.020Z,3888
2023-04-26T14:43:04.211Z,3768
2023-04-26T14:44:20.000Z,3732
2023-04-26T14:45:36.000Z,3740
2023-04-26T14:46:34.787Z,3712
2023-04-26T14:48:09.002Z,3692
2023-04-26T14:49:25.000Z,3684
2023-04-26T14:50:41.000Z,3736
2023-04-26T14:51:57.699Z,3752
2023-04-26T14:53:13.886Z,3844
2023-04-26T14:54:12.080Z,3952
2023-04-26T14:55:46.304Z,4044
2023-04-26T14:57:02.000Z,4220
2023-04-26T14:58:18.690Z,4436
2023-04-26T14:59:16.862Z,4640
2023-04-26T15:00:51.058Z,4852
2023-04-26T15:01:49.253Z,5076
2023-04-26T15:03:23.464Z,5384
2023-04-26T15:04:39.657Z,5784
2023-04-26T15:05:55.000Z,6008
2023-04-26T15:07:38.000Z,6372
2023-04-26T15:08:28.000Z,11416
2023-04-26T15:09:44.000Z,12392
2023-04-26T15:11:00.632Z,12576
2023-04-26T15:11:57.831Z,11740
2023-04-26T15:13:32.000Z,11436
2023-04-26T15:14:30.221Z,12624
2023-04-26T15:16:04.418Z,12848
2023-04-26T15:17:20.000Z,12548
2023-04-26T15:18:36.819Z,11588
2023-04-26T15:19:53.012Z,12092
2023-04-26T15:21:09.226Z,10420
2023-04-26T15:22:25.000Z,11376
2023-04-26T15:23:41.590Z,7780
2023-04-26T15:24:39.784Z,10440
2023-04-26T15:26:13.000Z,8604
2023-04-26T15:27:30.194Z,6540
2023-04-26T15:28:45.000Z,8092
2023-04-26T15:30:01.000Z,8824
2023-04-26T15:31:17.775Z,7392
2023-04-26T15:32:15.970Z,5540
2023-04-26T15:33:50.000Z,6172
2023-04-26T15:35:06.000Z,3872
2023-04-26T15:36:22.000Z,3380
2023-04-26T15:37:20.751Z,2804
2023-04-26T15:38:54.000Z,2444
2023-04-26T15:39:53.141Z,2256
2023-04-26T15:41:27.337Z,2060
2023-04-26T15:42:43.532Z,1876
2023-04-26T15:43:59.000Z,1744
2023-04-26T15:45:15.936Z,1664
2023-04-26T15:46:32.119Z,1548
2023-04-26T15:47:48.000Z,1488
2023-04-26T15:49:04.000Z,1428
2023-04-26T15:50:02.704Z,1380
2023-04-26T15:51:35.929Z,1328
2023-04-26T15:52:34.111Z,1304
2023-04-26T15:54:08.000Z,1292
2023-04-26T15:55:24.519Z,1284
2023-04-26T15:56:22.696Z,1268
2023-04-26T15:57:56.899Z,1248
2023-04-26T15:59:13.000Z,1248
2023-04-26T16:00:29.000Z,1264
2023-04-26T16:01:45.476Z,1256
2023-04-26T16:02:43.671Z,1236
2023-04-26T16:04:17.000Z,1216
2023-04-26T16:05:16.061Z,1200
2023-04-26T16:06:50.256Z,1192
2023-04-26T16:08:06.000Z,1200
2023-04-26T16:09:22.000Z,1208
2023-04-26T16:10:20.841Z,1200
2023-04-26T16:11:37.036Z,1200
2023-04-26T16:13:11.230Z,1228
2023-04-26T16:14:27.410Z,1280
2023-04-26T16:15:42.622Z,1352
2023-04-26T16:16:58.824Z,1428
2023-04-26T16:17:57.029Z,1524
2023-04-26T16:19:31.219Z,1640
2023-04-26T16:20:47.408Z,1780
2023-04-26T16:21:45.615Z,1936
2023-04-26T16:23:19.805Z,2116
2023-04-26T16:24:36.000Z,2320
2023-04-26T16:25:52.000Z,2540
2023-04-26T16:27:08.395Z,2776
2023-04-26T16:28:06.590Z,3068
2023-04-26T16:29:40.788Z,3544
2023-04-26T16:30:38.981Z,4200
2023-04-26T16:32:12.000Z,4988
2023-04-26T16:33:28.000Z,5960
2023-04-26T16:34:44.583Z,7572
2023-04-26T16:35:42.778Z,13980
2023-04-26T16:37:16.974Z,27744
2023-04-26T16:38:33.000Z,34624
2023-04-26T16:39:49.363Z,5484
2023-04-26T16:40:47.559Z,4252
2023-04-26T16:42:21.755Z,3684
2023-04-26T16:43:19.949Z,3592
2023-04-26T16:44:54.144Z,3628
2023-04-26T16:46:10.000Z,3784
2023-04-26T16:47:26.000Z,4076
2023-04-26T16:48:24.728Z,4508
2023-04-26T16:49:57.936Z,5152
2023-04-26T16:51:14.000Z,13644
2023-04-26T16:52:30.329Z,20608
2023-04-26T16:53:28.523Z,24544
2023-04-26T16:55:02.000Z,26368
2023-04-26T16:56:18.903Z,33088
2023-04-26T16:57:35.000Z,39104
2023-04-26T16:58:51.305Z,42912
2023-04-26T17:00:07.500Z,14748
2023-04-26T17:01:23.695Z,10152
2023-04-26T17:02:39.000Z,12984
2023-04-26T17:03:56.000Z,26944
2023-04-26T17:05:12.282Z,34048
2023-04-26T17:06:28.469Z,37504
2023-04-26T17:07:44.000Z,37184
2023-04-26T17:09:00.858Z,39328
2023-04-26T17:10:16.000Z,40160
2023-04-26T17:11:32.258Z,40832
2023-04-26T17:12:48.469Z,40544
2023-04-26T17:13:46.665Z,38656
2023-04-26T17:15:20.000Z,39072